createdAt,value
2019-04-14T00:02:33.739Z,19.20
2019-04-14T00:07:37.020Z,20.23
2019-04-14T00:12:40.583Z,18.00
2019-04-14T00:17:43.897Z,21.53
2019-04-14T00:22:47.316Z,17.10
2019-04-14T00:27:50.617Z,22.87
2019-04-14T00:32:55.566Z,14.83
2019-04-14T00:38:19.523Z,15.77
2019-04-14T00:43:27.431Z,13.88
2019-04-14T00:48:31.990Z,18.77
2019-04-14T00:53:36.006Z,12.07
2019-04-14T00:58:39.358Z,18.53
2019-04-14T01:03:43.571Z,10.03
2019-04-14T01:08:47.116Z,17.50
2019-04-14T01:13:50.833Z,10.90
2019-04-14T01:18:54.111Z,13.77
2019-04-14T01:23:57.422Z,14.10
2019-04-14T01:29:01.468Z,16.03
2019-04-14T01:34:04.871Z,15.47
2019-04-14T01:39:08.968Z,17.57
2019-04-14T01:44:13.261Z,18.20
2019-04-14T01:49:17.923Z,20.87
2019-04-14T01:54:23.490Z,20.30
2019-04-14T01:59:26.876Z,15.50
2019-04-14T02:04:31.283Z,14.83
2019-04-14T02:09:35.759Z,14.83
2019-04-14T02:14:39.114Z,17.07
2019-04-14T02:19:43.775Z,15.90
2019-04-14T02:24:48.180Z,19.63
2019-04-14T02:29:51.668Z,19.90
2019-04-14T02:35:24.160Z,13.37
2019-04-14T02:40:28.642Z,15.40
2019-04-14T02:45:35.366Z,15.20
2019-04-14T02:50:30.722Z,15.80
2019-04-14T02:55:42.282Z,12.50
2019-04-14T03:00:54.189Z,15.77
2019-04-14T03:05:57.959Z,16.40
2019-04-14T03:10:55.719Z,11.80
2019-04-14T03:16:08.019Z,20.60
2019-04-14T03:21:26.272Z,13.20
2019-04-14T03:26:40.334Z,9.07
2019-04-14T03:41:52.793Z,19.10
2019-04-14T03:47:08.900Z,17.23
2019-04-14T03:56:49.002Z,13.93
2019-04-14T04:01:54.460Z,18.27
2019-04-14T04:06:57.901Z,16.33
2019-04-14T04:12:01.226Z,16.75
2019-04-14T04:17:06.153Z,24.00
2019-04-14T04:22:26.463Z,17.00
2019-04-14T04:27:31.403Z,13.97
2019-04-14T04:32:51.517Z,18.83
2019-04-14T04:37:56.495Z,21.73
2019-04-14T04:42:59.852Z,18.33
2019-04-14T04:48:04.574Z,24.20
2019-04-14T04:53:08.990Z,13.87
2019-04-14T04:58:12.592Z,20.57
2019-04-14T05:03:16.844Z,15.30
2019-04-14T05:08:20.175Z,18.27
2019-04-14T05:13:24.863Z,16.40
2019-04-14T05:18:29.028Z,22.43
2019-04-14T05:23:32.393Z,18.40
2019-04-14T05:28:35.688Z,16.27
2019-04-14T05:33:38.990Z,17.53
2019-04-14T05:38:42.839Z,15.87
2019-04-14T05:43:52.053Z,15.60
2019-04-14T05:48:51.485Z,19.07
2019-04-14T05:53:54.821Z,14.20
2019-04-14T05:58:58.323Z,19.53
2019-04-14T06:04:02.497Z,15.43
2019-04-14T06:09:07.665Z,23.17
2019-04-14T06:14:11.150Z,17.40
2019-04-14T06:19:14.538Z,12.83
2019-04-14T06:24:18.041Z,22.47
2019-04-14T06:29:21.348Z,14.33
2019-04-14T06:34:41.234Z,13.73
2019-04-14T06:39:48.869Z,14.03
2019-04-14T06:44:52.210Z,22.63
2019-04-14T06:49:55.495Z,20.30
2019-04-14T06:54:58.788Z,27.57
2019-04-14T07:00:02.095Z,15.90
2019-04-14T07:05:06.658Z,16.30
2019-04-14T07:10:10.090Z,20.87
2019-04-14T07:15:13.381Z,17.63
2019-04-14T07:20:16.678Z,21.70
2019-04-14T07:25:19.986Z,21.47
2019-04-14T07:30:27.675Z,18.73
2019-04-14T07:35:48.756Z,23.00
2019-04-14T07:41:09.771Z,19.83
2019-04-14T07:46:14.727Z,19.23
2019-04-14T07:51:19.646Z,13.70
2019-04-14T07:56:24.591Z,17.23
2019-04-14T08:01:29.523Z,18.70
2019-04-14T08:06:33.441Z,21.13
2019-04-14T08:11:36.738Z,16.53
2019-04-14T08:16:40.042Z,21.93
2019-04-14T08:21:43.349Z,26.17
2019-04-14T08:26:46.719Z,17.17
2019-04-14T08:31:50.006Z,13.53
2019-04-14T08:36:53.544Z,24.90
2019-04-14T08:42:04.133Z,12.70
2019-04-14T08:47:09.066Z,16.57
2019-04-14T08:52:14.019Z,23.80
2019-04-14T08:57:18.985Z,17.30
2019-04-14T09:02:26.324Z,19.30
2019-04-14T09:07:40.509Z,18.87
2019-04-14T09:12:45.578Z,16.67
2019-04-14T09:17:48.875Z,19.67
2019-04-14T09:22:52.171Z,15.10
2019-04-14T09:27:55.460Z,14.77
2019-04-14T09:32:58.762Z,18.50
2019-04-14T09:38:02.060Z,19.20
2019-04-14T09:43:05.537Z,18.67
2019-04-14T09:48:08.847Z,24.43
2019-04-14T09:53:12.239Z,18.27
2019-04-14T09:58:16.120Z,20.10
2019-04-14T10:03:19.387Z,16.70
2019-04-14T10:08:22.686Z,15.33
2019-04-14T10:13:26.059Z,12.43
2019-04-14T10:18:29.360Z,17.63
2019-04-14T10:23:32.653Z,15.97
2019-04-14T10:28:35.960Z,18.07
2019-04-14T10:33:39.328Z,14.03
2019-04-14T10:38:42.633Z,18.43
2019-04-14T10:43:45.918Z,14.53
2019-04-14T10:48:49.221Z,18.07
2019-04-14T10:53:52.521Z,17.70
2019-04-14T10:58:55.872Z,15.33
2019-04-14T11:03:59.164Z,19.63
2019-04-14T11:09:02.597Z,16.23
2019-04-14T11:14:05.905Z,21.47
2019-04-14T11:19:09.235Z,18.73
2019-04-14T11:24:12.542Z,20.87
2019-04-14T11:29:15.836Z,17.57
2019-04-14T11:34:21.019Z,16.83
2019-04-14T11:39:24.494Z,20.87
2019-04-14T11:44:27.789Z,19.73
2019-04-14T11:49:31.092Z,21.67
2019-04-14T11:54:34.472Z,23.83
2019-04-14T11:59:39.416Z,20.93
2019-04-14T12:04:47.031Z,18.63
2019-04-14T12:09:51.980Z,19.00
2019-04-14T12:14:55.289Z,18.13
2019-04-14T12:19:58.604Z,14.93
2019-04-14T12:25:01.924Z,18.83
2019-04-14T12:30:11.094Z,13.90
2019-04-14T12:35:14.779Z,14.37
2019-04-14T12:40:18.119Z,19.43
2019-04-14T12:45:39.222Z,18.20
2019-04-14T12:50:52.974Z,16.87
2019-04-14T12:55:56.286Z,19.67
2019-04-14T13:01:01.233Z,18.48
2019-04-14T13:06:04.621Z,16.33
2019-04-14T13:11:08.197Z,19.33
2019-04-14T13:16:11.504Z,14.50
2019-04-14T13:21:14.817Z,20.63
2019-04-14T13:26:20.075Z,15.00
2019-04-14T13:31:23.398Z,13.77
2019-04-14T13:36:26.702Z,13.83
2019-04-14T13:41:30.013Z,14.50
2019-04-14T13:46:33.359Z,13.97
2019-04-14T13:51:36.694Z,15.20
2019-04-14T13:56:40.078Z,15.60
2019-04-14T14:01:43.396Z,13.77
2019-04-14T14:06:46.816Z,13.23
2019-04-14T14:11:57.746Z,12.50
2019-04-14T14:17:08.501Z,11.40
2019-04-14T14:22:13.454Z,10.68
2019-04-14T14:27:16.751Z,9.73
2019-04-14T14:32:21.715Z,9.30
2019-04-14T14:37:25.021Z,9.80
2019-04-14T14:42:28.340Z,9.30
2019-04-14T14:47:33.284Z,12.70
2019-04-14T14:52:38.030Z,12.47
2019-04-14T14:57:41.339Z,11.70
2019-04-14T15:02:44.717Z,13.53
2019-04-14T15:07:48.049Z,11.10
2019-04-14T15:12:51.382Z,11.87
2019-04-14T15:17:56.111Z,9.00
2019-04-14T15:22:59.403Z,9.30
2019-04-14T15:28:03.675Z,9.30
2019-04-14T15:33:06.974Z,13.60
2019-04-14T15:38:10.282Z,10.70
2019-04-14T15:43:13.591Z,11.37
2019-04-14T15:48:16.937Z,11.57
2019-04-14T15:53:20.295Z,13.07
2019-04-14T15:58:37.464Z,9.73
2019-04-14T16:03:58.662Z,10.90
2019-04-14T16:09:19.766Z,9.33
2019-04-14T16:14:24.746Z,12.27
2019-04-14T16:19:32.440Z,9.50
2019-04-14T16:24:35.754Z,11.03
2019-04-14T16:29:44.023Z,10.57
2019-04-14T16:34:49.947Z,10.80
2019-04-14T16:39:53.257Z,11.97
2019-04-14T16:44:56.563Z,12.87
2019-04-14T16:50:00.033Z,12.67
2019-04-14T16:55:08.540Z,18.20
2019-04-14T17:00:13.650Z,11.93
2019-04-14T17:05:16.987Z,14.27
2019-04-14T17:10:20.297Z,14.53
2019-04-14T17:15:31.097Z,13.00
2019-04-14T17:20:38.702Z,18.57
2019-04-14T17:25:49.502Z,14.33
2019-04-14T17:30:56.946Z,12.80
2019-04-14T17:36:11.236Z,18.07
2019-04-14T17:41:19.074Z,18.03
2019-04-14T17:46:24.084Z,19.27
2019-04-14T17:51:31.719Z,20.23
2019-04-14T17:56:36.672Z,21.33
2019-04-14T18:01:47.175Z,23.17
2019-04-14T18:06:55.228Z,23.43
2019-04-14T18:12:09.180Z,20.40
2019-04-14T18:17:29.173Z,17.87
2019-04-14T18:22:32.554Z,17.10
2019-04-14T18:27:37.521Z,25.03
2019-04-14T18:32:44.883Z,19.90
2019-04-14T18:37:52.979Z,21.27
2019-04-14T18:42:58.271Z,17.70
2019-04-14T18:48:05.778Z,24.17
2019-04-14T18:53:11.016Z,19.77
2019-04-14T18:58:16.273Z,22.30
2019-04-14T19:03:19.670Z,18.73
2019-04-14T19:08:22.969Z,20.20
2019-04-14T19:13:32.189Z,20.67
2019-04-14T19:18:39.655Z,26.43
2019-04-14T19:23:43.070Z,25.43
2019-04-14T19:28:46.610Z,22.50
2019-04-14T19:33:50.011Z,26.50
2019-04-14T19:38:53.362Z,21.13
2019-04-14T19:43:56.740Z,23.40
2019-04-14T19:49:00.413Z,24.57
2019-04-14T19:54:03.926Z,22.60
2019-04-14T19:59:07.311Z,20.25
2019-04-14T20:04:10.640Z,29.33
2019-04-14T20:09:13.951Z,27.10
2019-04-14T20:14:17.337Z,23.42
2019-04-14T20:19:41.559Z,26.47
2019-04-14T20:24:49.264Z,27.03
2019-04-14T20:29:59.998Z,26.17
2019-04-14T20:35:03.469Z,23.75
2019-04-14T20:40:07.104Z,23.07
2019-04-14T20:45:12.160Z,27.77
2019-04-14T20:50:16.012Z,26.07
2019-04-14T20:55:19.329Z,29.25
2019-04-14T21:00:22.769Z,32.10
2019-04-14T21:05:27.711Z,30.20
2019-04-14T21:10:44.609Z,29.50
2019-04-14T21:16:12.663Z,27.13
2019-04-14T21:21:14.343Z,23.93
2019-04-14T21:26:37.625Z,25.50
2019-04-14T21:31:42.621Z,28.17
2019-04-14T21:36:50.212Z,26.00
2019-04-14T21:41:53.690Z,27.02
2019-04-14T21:46:57.031Z,29.63
2019-04-14T21:52:20.170Z,27.40
2019-04-14T21:57:27.532Z,27.90
2019-04-14T22:02:48.659Z,23.83
2019-04-14T22:07:53.599Z,25.57
2019-04-14T22:12:57.037Z,29.00
2019-04-14T22:18:00.658Z,24.23
2019-04-14T22:23:05.587Z,26.40
2019-04-14T22:28:08.958Z,30.40
2019-04-14T22:33:12.340Z,20.97
2019-04-14T22:38:15.651Z,27.93
2019-04-14T22:43:18.951Z,30.87
2019-04-14T22:48:22.271Z,30.57
2019-04-14T22:53:25.583Z,25.17
2019-04-14T22:58:28.899Z,27.63
2019-04-14T23:03:36.219Z,32.80
2019-04-14T23:08:46.680Z,26.53
2019-04-14T23:14:06.276Z,23.17
2019-04-14T23:19:11.212Z,23.83
2019-04-14T23:24:18.828Z,24.82
2019-04-14T23:29:22.124Z,21.57
2019-04-14T23:34:25.416Z,23.40
2019-04-14T23:39:28.721Z,23.60
2019-04-14T23:44:32.032Z,23.50
2019-04-14T23:49:35.346Z,22.33
2019-04-14T23:54:38.663Z,20.83
2019-04-14T23:59:41.957Z,19.57
